sensor_id;sensor_type;location;lat;lon;timestamp;pressure;altitude;pressure_sealevel;temperature;humidity
30516;BME280;17297;54.022;10.760;2023-09-30T00:02:21;101976.47;;;18.16;65.73
30516;BME280;17297;54.022;10.760;2023-09-30T00:04:46;101972.31;;;18.13;65.60
30516;BME280;17297;54.022;10.760;2023-09-30T00:07:12;101966.25;;;18.11;65.83
30516;BME280;17297;54.022;10.760;2023-09-30T00:09:37;101983.84;;;18.09;65.67
30516;BME280;17297;54.022;10.760;2023-09-30T00:12:05;101976.94;;;18.06;65.87
30516;BME280;17297;54.022;10.760;2023-09-30T00:14:30;101985.34;;;18.05;65.64
30516;BME280;17297;54.022;10.760;2023-09-30T00:16:55;101986.34;;;18.04;65.80
30516;BME280;17297;54.022;10.760;2023-09-30T00:19:21;101991.41;;;18.00;65.89
30516;BME280;17297;54.022;10.760;2023-09-30T00:21:48;101993.28;;;17.99;65.77
30516;BME280;17297;54.022;10.760;2023-09-30T00:24:13;101992.69;;;17.97;65.68
30516;BME280;17297;54.022;10.760;2023-09-30T00:26:39;101992.88;;;17.96;65.55
30516;BME280;17297;54.022;10.760;2023-09-30T00:29:04;101992.25;;;17.94;65.87
30516;BME280;17297;54.022;10.760;2023-09-30T00:31:30;101989.75;;;17.92;65.71
30516;BME280;17297;54.022;10.760;2023-09-30T00:33:57;101993.53;;;17.91;65.91
30516;BME280;17297;54.022;10.760;2023-09-30T00:36:23;102000.22;;;17.89;65.91
30516;BME280;17297;54.022;10.760;2023-09-30T00:38:48;101999.38;;;17.88;65.63
30516;BME280;17297;54.022;10.760;2023-09-30T00:41:13;101996.03;;;17.86;65.70
30516;BME280;17297;54.022;10.760;2023-09-30T00:43:39;102015.28;;;17.85;65.60
30516;BME280;17297;54.022;10.760;2023-09-30T00:48:54;102006.72;;;17.81;65.86
30516;BME280;17297;54.022;10.760;2023-09-30T00:51:21;102001.50;;;17.80;65.87
30516;BME280;17297;54.022;10.760;2023-09-30T00:53:46;102002.31;;;17.80;65.80
30516;BME280;17297;54.022;10.760;2023-09-30T00:56:12;102008.81;;;17.79;65.97
30516;BME280;17297;54.022;10.760;2023-09-30T00:58:38;102007.31;;;17.76;65.91
30516;BME280;17297;54.022;10.760;2023-09-30T01:01:05;102003.75;;;17.76;65.92
30516;BME280;17297;54.022;10.760;2023-09-30T01:03:30;102007.50;;;17.75;65.78
30516;BME280;17297;54.022;10.760;2023-09-30T01:05:56;102009.41;;;17.74;65.61
30516;BME280;17297;54.022;10.760;2023-09-30T01:08:21;102001.25;;;17.74;65.85
30516;BME280;17297;54.022;10.760;2023-09-30T01:10:47;102005.84;;;17.74;65.82
30516;BME280;17297;54.022;10.760;2023-09-30T01:13:13;102006.91;;;17.73;65.71
30516;BME280;17297;54.022;10.760;2023-09-30T01:15:39;102006.28;;;17.71;65.73
30516;BME280;17297;54.022;10.760;2023-09-30T01:18:04;102003.75;;;17.69;65.88
30516;BME280;17297;54.022;10.760;2023-09-30T01:20:29;102012.13;;;17.68;65.63
30516;BME280;17297;54.022;10.760;2023-09-30T01:22:57;102010.47;;;17.67;65.82
30516;BME280;17297;54.022;10.760;2023-09-30T01:25:22;102009.81;;;17.65;65.90
30516;BME280;17297;54.022;10.760;2023-09-30T01:27:48;102009.00;;;17.64;65.67
30516;BME280;17297;54.022;10.760;2023-09-30T01:30:13;102017.34;;;17.63;65.79
30516;BME280;17297;54.022;10.760;2023-09-30T01:32:39;102019.47;;;17.61;65.70
30516;BME280;17297;54.022;10.760;2023-09-30T01:35:05;102021.53;;;17.59;65.76
30516;BME280;17297;54.022;10.760;2023-09-30T01:37:31;102021.78;;;17.57;65.69
30516;BME280;17297;54.022;10.760;2023-09-30T01:39:56;102021.78;;;17.57;65.64
30516;BME280;17297;54.022;10.760;2023-09-30T01:42:22;102023.22;;;17.53;65.53
30516;BME280;17297;54.022;10.760;2023-09-30T01:44:47;102024.03;;;17.53;65.60
30516;BME280;17297;54.022;10.760;2023-09-30T01:47:13;102023.44;;;17.51;65.69
30516;BME280;17297;54.022;10.760;2023-09-30T01:49:38;102024.25;;;17.52;65.44
30516;BME280;17297;54.022;10.760;2023-09-30T01:52:04;102025.50;;;17.49;65.73
30516;BME280;17297;54.022;10.760;2023-09-30T01:54:29;102028.47;;;17.48;65.63
30516;BME280;17297;54.022;10.760;2023-09-30T01:56:54;102027.81;;;17.46;65.59
30516;BME280;17297;54.022;10.760;2023-09-30T01:59:20;102027.19;;;17.44;65.62
30516;BME280;17297;54.022;10.760;2023-09-30T02:01:46;102032.84;;;17.42;65.60
30516;BME280;17297;54.022;10.760;2023-09-30T02:04:12;102035.75;;;17.41;65.57
30516;BME280;17297;54.022;10.760;2023-09-30T02:06:40;102043.91;;;17.41;65.64
30516;BME280;17297;54.022;10.760;2023-09-30T02:09:05;102034.28;;;17.38;65.67
30516;BME280;17297;54.022;10.760;2023-09-30T02:11:33;102036.38;;;17.36;65.56
30516;BME280;17297;54.022;10.760;2023-09-30T02:13:59;102048.28;;;17.35;65.66
30516;BME280;17297;54.022;10.760;2023-09-30T02:16:24;102043.91;;;17.34;65.48
30516;BME280;17297;54.022;10.760;2023-09-30T02:18:50;102043.28;;;17.32;65.58
30516;BME280;17297;54.022;10.760;2023-09-30T02:21:15;102041.59;;;17.31;65.64
30516;BME280;17297;54.022;10.760;2023-09-30T02:23:41;102042.66;;;17.30;65.63
30516;BME280;17297;54.022;10.760;2023-09-30T02:26:06;102046.41;;;17.29;65.73
30516;BME280;17297;54.022;10.760;2023-09-30T02:28:32;102041.19;;;17.27;65.77
30516;BME280;17297;54.022;10.760;2023-09-30T02:31:00;102046.63;;;17.27;65.84
30516;BME280;17297;54.022;10.760;2023-09-30T02:33:25;102045.78;;;17.27;65.69
30516;BME280;17297;54.022;10.760;2023-09-30T02:35:51;102042.22;;;17.26;65.69
30516;BME280;17297;54.022;10.760;2023-09-30T02:38:17;102044.94;;;17.26;65.89
30516;BME280;17297;54.022;10.760;2023-09-30T02:40:44;102031.75;;;17.23;65.73
30516;BME280;17297;54.022;10.760;2023-09-30T02:43:12;102038.03;;;17.24;65.65
30516;BME280;17297;54.022;10.760;2023-09-30T02:45:38;102047.25;;;17.23;65.68
30516;BME280;17297;54.022;10.760;2023-09-30T02:48:03;102039.28;;;17.21;65.74
30516;BME280;17297;54.022;10.760;2023-09-30T02:50:29;102050.16;;;17.21;65.68
30516;BME280;17297;54.022;10.760;2023-09-30T02:52:54;102056.66;;;17.20;65.86
30516;BME280;17297;54.022;10.760;2023-09-30T02:55:20;102061.25;;;17.20;65.83
30516;BME280;17297;54.022;10.760;2023-09-30T02:57:45;102059.56;;;17.19;65.77
30516;BME280;17297;54.022;10.760;2023-09-30T03:00:12;102059.78;;;17.17;65.79
30516;BME280;17297;54.022;10.760;2023-09-30T03:02:57;102064.38;;;17.17;66.01
30516;BME280;17297;54.022;10.760;2023-09-30T03:05:23;102066.22;;;17.16;65.82
30516;BME280;17297;54.022;10.760;2023-09-30T03:07:49;102059.13;;;17.15;65.96
30516;BME280;17297;54.022;10.760;2023-09-30T03:10:17;102063.75;;;17.15;66.10
30516;BME280;17297;54.022;10.760;2023-09-30T03:12:51;102059.53;;;17.12;65.87
30516;BME280;17297;54.022;10.760;2023-09-30T03:15:17;102065.81;;;17.13;65.97
30516;BME280;17297;54.022;10.760;2023-09-30T03:17:43;102063.31;;;17.11;66.10
30516;BME280;17297;54.022;10.760;2023-09-30T03:20:09;102060.78;;;17.09;65.91
30516;BME280;17297;54.022;10.760;2023-09-30T03:22:40;102061.84;;;17.08;65.94
30516;BME280;17297;54.022;10.760;2023-09-30T03:25:06;102060.16;;;17.07;65.76
30516;BME280;17297;54.022;10.760;2023-09-30T03:27:35;102059.53;;;17.05;66.00
30516;BME280;17297;54.022;10.760;2023-09-30T03:30:04;102061.59;;;17.03;66.13
30516;BME280;17297;54.022;10.760;2023-09-30T03:32:31;102067.03;;;17.03;66.03
30516;BME280;17297;54.022;10.760;2023-09-30T03:34:58;102067.25;;;17.02;65.99
30516;BME280;17297;54.022;10.760;2023-09-30T03:37:26;102068.31;;;17.01;66.05
30516;BME280;17297;54.022;10.760;2023-09-30T03:39:56;102070.38;;;16.99;66.00
30516;BME280;17297;54.022;10.760;2023-09-30T03:42:22;102064.09;;;16.98;65.99
30516;BME280;17297;54.022;10.760;2023-09-30T03:44:47;102061.56;;;16.97;66.02
30516;BME280;17297;54.022;10.760;2023-09-30T03:47:17;102064.50;;;16.95;66.10
30516;BME280;17297;54.022;10.760;2023-09-30T03:49:42;102070.97;;;16.94;65.89
30516;BME280;17297;54.022;10.760;2023-09-30T03:52:11;102072.03;;;16.93;66.08
30516;BME280;17297;54.022;10.760;2023-09-30T03:54:37;102073.91;;;16.93;66.10
30516;BME280;17297;54.022;10.760;2023-09-30T03:57:03;102063.22;;;16.91;66.15
30516;BME280;17297;54.022;10.760;2023-09-30T03:59:29;102071.59;;;16.90;66.25
30516;BME280;17297;54.022;10.760;2023-09-30T04:01:55;102073.25;;;16.91;65.97
30516;BME280;17297;54.022;10.760;2023-09-30T04:04:22;102073.66;;;16.88;66.18
30516;BME280;17297;54.022;10.760;2023-09-30T04:06:47;102072.84;;;16.87;66.10
30516;BME280;17297;54.022;10.760;2023-09-30T04:09:13;102073.88;;;16.86;66.05
30516;BME280;17297;54.022;10.760;2023-09-30T04:11:39;102081.19;;;16.85;66.13
30516;BME280;17297;54.022;10.760;2023-09-30T04:14:06;102078.66;;;16.84;66.21
30516;BME280;17297;54.022;10.760;2023-09-30T04:16:32;102086.00;;;16.83;66.25
30516;BME280;17297;54.022;10.760;2023-09-30T04:18:58;102085.16;;;16.83;66.30
30516;BME280;17297;54.022;10.760;2023-09-30T04:21:23;102081.59;;;16.82;66.23
30516;BME280;17297;54.022;10.760;2023-09-30T04:23:49;102089.75;;;16.82;66.17
30516;BME280;17297;54.022;10.760;2023-09-30T04:26:14;102090.78;;;16.81;66.25
30516;BME280;17297;54.022;10.760;2023-09-30T04:28:40;102092.66;;;16.81;66.37
30516;BME280;17297;54.022;10.760;2023-09-30T04:31:05;102089.13;;;16.80;66.29
30516;BME280;17297;54.022;10.760;2023-09-30T04:33:32;102082.84;;;16.80;66.27
30516;BME280;17297;54.022;10.760;2023-09-30T04:36:00;102090.16;;;16.79;66.22
30516;BME280;17297;54.022;10.760;2023-09-30T04:38:26;102083.88;;;16.79;66.28
30516;BME280;17297;54.022;10.760;2023-09-30T04:40:52;102084.09;;;16.77;66.56
30516;BME280;17297;54.022;10.760;2023-09-30T04:43:19;102093.06;;;16.78;66.44
30516;BME280;17297;54.022;10.760;2023-09-30T04:45:44;102096.63;;;16.78;66.50
30516;BME280;17297;54.022;10.760;2023-09-30T04:48:10;102098.50;;;16.78;66.47
30516;BME280;17297;54.022;10.760;2023-09-30T04:50:35;102097.66;;;16.77;66.51
30516;BME280;17297;54.022;10.760;2023-09-30T04:53:01;102096.00;;;16.76;66.69
30516;BME280;17297;54.022;10.760;2023-09-30T04:55:27;102098.72;;;16.76;66.55
30516;BME280;17297;54.022;10.760;2023-09-30T04:57:53;102103.28;;;16.76;66.64
30516;BME280;17297;54.022;10.760;2023-09-30T05:00:19;102110.41;;;16.77;66.67
30516;BME280;17297;54.022;10.760;2023-09-30T05:02:51;102117.75;;;16.76;66.66
30516;BME280;17297;54.022;10.760;2023-09-30T05:05:17;102105.16;;;16.75;66.83
30516;BME280;17297;54.022;10.760;2023-09-30T05:07:43;102097.19;;;16.74;66.65
30516;BME280;17297;54.022;10.760;2023-09-30T05:10:10;102105.16;;;16.75;66.51
30516;BME280;17297;54.022;10.760;2023-09-30T05:12:38;102107.88;;;16.75;66.79
30516;BME280;17297;54.022;10.760;2023-09-30T05:15:04;102120.59;;;16.75;66.70
30516;BME280;17297;54.022;10.760;2023-09-30T05:17:31;102134.03;;;16.76;66.80
30516;BME280;17297;54.022;10.760;2023-09-30T05:19:57;102132.16;;;16.77;66.79
30516;BME280;17297;54.022;10.760;2023-09-30T05:22:22;102127.56;;;16.77;66.84
30516;BME280;17297;54.022;10.760;2023-09-30T05:24:52;102131.09;;;16.78;66.85
30516;BME280;17297;54.022;10.760;2023-09-30T05:27:18;102130.06;;;16.79;66.86
30516;BME280;17297;54.022;10.760;2023-09-30T05:29:43;102131.53;;;16.81;67.06
30516;BME280;17297;54.022;10.760;2023-09-30T05:32:08;102132.38;;;16.82;66.87
30516;BME280;17297;54.022;10.760;2023-09-30T05:34:34;102121.75;;;16.87;66.95
30516;BME280;17297;54.022;10.760;2023-09-30T05:36:59;102121.56;;;16.89;67.14
30516;BME280;17297;54.022;10.760;2023-09-30T05:39:25;102114.47;;;16.94;67.04
30516;BME280;17297;54.022;10.760;2023-09-30T05:41:50;102123.06;;;16.98;66.96
30516;BME280;17297;54.022;10.760;2023-09-30T05:44:16;102129.78;;;17.02;67.01
30516;BME280;17297;54.022;10.760;2023-09-30T05:46:41;102132.09;;;17.05;66.95
30516;BME280;17297;54.022;10.760;2023-09-30T05:49:09;102132.53;;;17.08;67.01
30516;BME280;17297;54.022;10.760;2023-09-30T05:51:42;102129.19;;;17.13;66.78
30516;BME280;17297;54.022;10.760;2023-09-30T05:54:07;102125.22;;;17.16;67.13
30516;BME280;17297;54.022;10.760;2023-09-30T05:56:37;102128.59;;;17.18;66.86
30516;BME280;17297;54.022;10.760;2023-09-30T05:59:08;102148.25;;;17.20;66.85
30516;BME280;17297;54.022;10.760;2023-09-30T06:01:33;102145.53;;;17.20;66.97
30516;BME280;17297;54.022;10.760;2023-09-30T06:04:00;102149.94;;;17.21;67.01
30516;BME280;17297;54.022;10.760;2023-09-30T06:06:26;102149.09;;;17.20;66.91
30516;BME280;17297;54.022;10.760;2023-09-30T06:08:53;102153.69;;;17.20;66.89
30516;BME280;17297;54.022;10.760;2023-09-30T06:11:22;102148.25;;;17.20;66.82
30516;BME280;17297;54.022;10.760;2023-09-30T06:13:50;102158.28;;;17.19;66.70
30516;BME280;17297;54.022;10.760;2023-09-30T06:16:16;102160.16;;;17.19;66.90
30516;BME280;17297;54.022;10.760;2023-09-30T06:18:41;102162.88;;;17.19;66.91
30516;BME280;17297;54.022;10.760;2023-09-30T06:21:06;102171.03;;;17.19;66.84
30516;BME280;17297;54.022;10.760;2023-09-30T06:23:32;102176.47;;;17.19;66.85
30516;BME280;17297;54.022;10.760;2023-09-30T06:25:59;102190.06;;;17.19;66.95
30516;BME280;17297;54.022;10.760;2023-09-30T06:28:27;102186.50;;;17.18;67.07
30516;BME280;17297;54.022;10.760;2023-09-30T06:30:53;102193.63;;;17.19;66.98
30516;BME280;17297;54.022;10.760;2023-09-30T06:33:18;102193.63;;;17.19;67.01
30516;BME280;17297;54.022;10.760;2023-09-30T06:35:44;102194.50;;;17.20;66.90
30516;BME280;17297;54.022;10.760;2023-09-30T06:38:21;102193.03;;;17.24;67.25
30516;BME280;17297;54.022;10.760;2023-09-30T06:40:47;102197.03;;;17.28;67.21
30516;BME280;17297;54.022;10.760;2023-09-30T06:43:16;102194.53;;;17.33;67.07
30516;BME280;17297;54.022;10.760;2023-09-30T06:45:42;102199.16;;;17.39;66.95
30516;BME280;17297;54.022;10.760;2023-09-30T06:48:09;102191.88;;;17.46;67.16
30516;BME280;17297;54.022;10.760;2023-09-30T06:53:10;102209.03;;;17.53;67.19
30516;BME280;17297;54.022;10.760;2023-09-30T06:55:39;102212.84;;;17.59;67.16
30516;BME280;17297;54.022;10.760;2023-09-30T06:58:05;102207.63;;;17.64;66.99
30516;BME280;17297;54.022;10.760;2023-09-30T07:00:36;102204.28;;;17.69;66.79
30516;BME280;17297;54.022;10.760;2023-09-30T07:03:02;102217.28;;;17.73;67.05
30516;BME280;17297;54.022;10.760;2023-09-30T07:05:27;102231.59;;;17.82;66.83
30516;BME280;17297;54.022;10.760;2023-09-30T07:07:53;102224.28;;;17.89;66.97
30516;BME280;17297;54.022;10.760;2023-09-30T07:10:19;102226.41;;;18.07;67.00
30516;BME280;17297;54.022;10.760;2023-09-30T07:12:44;102222.44;;;18.23;67.05
30516;BME280;17297;54.022;10.760;2023-09-30T07:15:10;102228.72;;;18.37;66.67
30516;BME280;17297;54.022;10.760;2023-09-30T07:17:35;102227.06;;;18.49;66.55
30516;BME280;17297;54.022;10.760;2023-09-30T07:20:02;102226.44;;;18.74;66.47
30516;BME280;17297;54.022;10.760;2023-09-30T07:22:27;102222.03;;;18.86;66.05
30516;BME280;17297;54.022;10.760;2023-09-30T07:24:53;102221.38;;;18.90;65.77
30516;BME280;17297;54.022;10.760;2023-09-30T07:27:18;102227.47;;;18.92;65.81
30516;BME280;17297;54.022;10.760;2023-09-30T07:29:44;102225.56;;;18.93;65.69
30516;BME280;17297;54.022;10.760;2023-09-30T07:32:09;102228.28;;;18.93;65.90
30516;BME280;17297;54.022;10.760;2023-09-30T07:34:34;102231.44;;;18.97;65.77
30516;BME280;17297;54.022;10.760;2023-09-30T07:37:00;102224.72;;;18.99;65.83
30516;BME280;17297;54.022;10.760;2023-09-30T07:39:25;102230.16;;;18.99;65.70
30516;BME280;17297;54.022;10.760;2023-09-30T07:41:51;102236.47;;;19.00;65.65
30516;BME280;17297;54.022;10.760;2023-09-30T07:44:16;102235.03;;;18.97;65.36
30516;BME280;17297;54.022;10.760;2023-09-30T07:46:41;102240.03;;;18.93;65.60
30516;BME280;17297;54.022;10.760;2023-09-30T07:49:11;102239.84;;;18.88;65.59
30516;BME280;17297;54.022;10.760;2023-09-30T07:51:36;102245.50;;;18.87;65.49
30516;BME280;17297;54.022;10.760;2023-09-30T07:54:04;102241.31;;;18.84;65.64
30516;BME280;17297;54.022;10.760;2023-09-30T07:56:30;102244.25;;;18.83;65.60
30516;BME280;17297;54.022;10.760;2023-09-30T07:58:55;102248.03;;;18.82;65.75
30516;BME280;17297;54.022;10.760;2023-09-30T08:01:20;102246.34;;;18.81;65.61
30516;BME280;17297;54.022;10.760;2023-09-30T08:03:46;102244.44;;;18.81;65.64
30516;BME280;17297;54.022;10.760;2023-09-30T08:06:12;102242.59;;;18.82;65.68
30516;BME280;17297;54.022;10.760;2023-09-30T08:08:37;102245.09;;;18.83;65.84
30516;BME280;17297;54.022;10.760;2023-09-30T08:11:03;102245.72;;;18.85;65.96
30516;BME280;17297;54.022;10.760;2023-09-30T08:13:30;102248.47;;;18.85;65.74
30516;BME280;17297;54.022;10.760;2023-09-30T08:15:56;102251.19;;;18.85;65.65
30516;BME280;17297;54.022;10.760;2023-09-30T08:18:21;102246.56;;;18.86;65.74
30516;BME280;17297;54.022;10.760;2023-09-30T08:20:47;102255.56;;;18.86;65.81
30516;BME280;17297;54.022;10.760;2023-09-30T08:23:12;102261.66;;;18.88;65.78
30516;BME280;17297;54.022;10.760;2023-09-30T08:25:38;102254.31;;;18.89;65.96
30516;BME280;17297;54.022;10.760;2023-09-30T08:28:04;102247.81;;;18.90;65.88
30516;BME280;17297;54.022;10.760;2023-09-30T08:30:30;102256.63;;;18.92;65.92
30516;BME280;17297;54.022;10.760;2023-09-30T08:32:56;102259.13;;;18.93;65.75
30516;BME280;17297;54.022;10.760;2023-09-30T08:35:21;102264.16;;;18.97;65.84
30516;BME280;17297;54.022;10.760;2023-09-30T08:37:46;102258.50;;;18.98;65.71
30516;BME280;17297;54.022;10.760;2023-09-30T08:40:12;102271.72;;;19.01;66.01
30516;BME280;17297;54.022;10.760;2023-09-30T08:42:39;102263.53;;;19.01;65.94
30516;BME280;17297;54.022;10.760;2023-09-30T08:45:05;102271.28;;;19.04;65.80
30516;BME280;17297;54.022;10.760;2023-09-30T08:47:33;102272.94;;;19.05;65.73
30516;BME280;17297;54.022;10.760;2023-09-30T08:50:00;102272.53;;;19.08;65.80
30516;BME280;17297;54.022;10.760;2023-09-30T08:52:34;102276.09;;;19.09;65.77
30516;BME280;17297;54.022;10.760;2023-09-30T08:55:00;102282.19;;;19.11;65.69
30516;BME280;17297;54.022;10.760;2023-09-30T08:57:27;102278.19;;;19.13;65.84
30516;BME280;17297;54.022;10.760;2023-09-30T08:59:53;102277.97;;;19.15;65.71
30516;BME280;17297;54.022;10.760;2023-09-30T09:02:19;102277.78;;;19.17;65.57
30516;BME280;17297;54.022;10.760;2023-09-30T09:04:47;102283.00;;;19.18;65.87
30516;BME280;17297;54.022;10.760;2023-09-30T09:07:14;102288.25;;;19.20;65.71
30516;BME280;17297;54.022;10.760;2023-09-30T09:09:40;102283.19;;;19.23;65.77
30516;BME280;17297;54.022;10.760;2023-09-30T09:12:05;102291.78;;;19.27;65.55
30516;BME280;17297;54.022;10.760;2023-09-30T09:14:40;102286.97;;;19.29;65.76
30516;BME280;17297;54.022;10.760;2023-09-30T09:17:07;102285.69;;;19.31;65.81
30516;BME280;17297;54.022;10.760;2023-09-30T09:19:36;102289.69;;;19.35;65.85
30516;BME280;17297;54.022;10.760;2023-09-30T09:22:03;102286.72;;;19.37;65.85
30516;BME280;17297;54.022;10.760;2023-09-30T09:24:38;102287.13;;;19.41;65.96
30516;BME280;17297;54.022;10.760;2023-09-30T09:27:05;102286.69;;;19.44;65.79
30516;BME280;17297;54.022;10.760;2023-09-30T09:29:32;102290.69;;;19.48;65.69
30516;BME280;17297;54.022;10.760;2023-09-30T09:32:14;102294.03;;;19.50;65.36
30516;BME280;17297;54.022;10.760;2023-09-30T09:34:40;102292.75;;;19.52;65.30
30516;BME280;17297;54.022;10.760;2023-09-30T09:37:19;102289.84;;;19.54;65.50
30516;BME280;17297;54.022;10.760;2023-09-30T09:40:04;102296.75;;;19.56;65.73
30516;BME280;17297;54.022;10.760;2023-09-30T09:42:33;102295.03;;;19.62;65.51
30516;BME280;17297;54.022;10.760;2023-09-30T09:45:03;102290.00;;;19.66;65.58
30516;BME280;17297;54.022;10.760;2023-09-30T09:47:31;102290.44;;;19.69;65.42
30516;BME280;17297;54.022;10.760;2023-09-30T09:49:58;102291.69;;;19.73;65.56
30516;BME280;17297;54.022;10.760;2023-09-30T09:52:25;102292.06;;;19.77;65.46
30516;BME280;17297;54.022;10.760;2023-09-30T09:54:51;102294.16;;;19.81;65.56
30516;BME280;17297;54.022;10.760;2023-09-30T09:57:17;102289.94;;;19.86;65.53
30516;BME280;17297;54.022;10.760;2023-09-30T09:59:44;102283.81;;;19.90;65.36
30516;BME280;17297;54.022;10.760;2023-09-30T10:02:15;102290.31;;;19.96;65.53
30516;BME280;17297;54.022;10.760;2023-09-30T10:04:45;102295.97;;;20.01;65.39
30516;BME280;17297;54.022;10.760;2023-09-30T10:07:15;102293.38;;;20.06;65.35
30516;BME280;17297;54.022;10.760;2023-09-30T10:09:45;102288.56;;;20.08;65.00
30516;BME280;17297;54.022;10.760;2023-09-30T10:12:11;102297.38;;;20.10;65.02
30516;BME280;17297;54.022;10.760;2023-09-30T10:14:37;102295.88;;;20.14;65.16
30516;BME280;17297;54.022;10.760;2023-09-30T10:17:03;102295.22;;;20.19;65.07
30516;BME280;17297;54.022;10.760;2023-09-30T10:19:29;102293.94;;;20.21;65.23
30516;BME280;17297;54.022;10.760;2023-09-30T10:24:56;102288.84;;;20.32;64.85
30516;BME280;17297;54.022;10.760;2023-09-30T10:29:47;102294.47;;;20.37;64.65
30516;BME280;17297;54.022;10.760;2023-09-30T10:32:13;102298.66;;;20.39;64.70
30516;BME280;17297;54.022;10.760;2023-09-30T10:34:47;102291.72;;;20.37;64.62
30516;BME280;17297;54.022;10.760;2023-09-30T10:37:22;102293.63;;;20.36;64.59
30516;BME280;17297;54.022;10.760;2023-09-30T10:39:58;102290.50;;;20.33;64.28
30516;BME280;17297;54.022;10.760;2023-09-30T10:42:46;102287.97;;;20.31;64.01
30516;BME280;17297;54.022;10.760;2023-09-30T10:50:51;102302.06;;;20.35;63.86
30516;BME280;17297;54.022;10.760;2023-09-30T10:53:17;102297.44;;;20.35;63.83
30516;BME280;17297;54.022;10.760;2023-09-30T10:55:45;102290.06;;;20.36;63.38
30516;BME280;17297;54.022;10.760;2023-09-30T10:58:12;102296.16;;;20.38;63.51
30516;BME280;17297;54.022;10.760;2023-09-30T11:00:38;102304.56;;;20.36;63.07
30516;BME280;17297;54.022;10.760;2023-09-30T11:03:04;102301.00;;;20.36;63.33
30516;BME280;17297;54.022;10.760;2023-09-30T11:05:31;102301.81;;;20.36;63.34
30516;BME280;17297;54.022;10.760;2023-09-30T11:08:02;102297.19;;;20.37;62.93
30516;BME280;17297;54.022;10.760;2023-09-30T11:10:29;102300.56;;;20.39;62.90
30516;BME280;17297;54.022;10.760;2023-09-30T11:12:57;102302.00;;;20.41;62.90
30516;BME280;17297;54.022;10.760;2023-09-30T11:15:24;102304.75;;;20.41;62.45
30516;BME280;17297;54.022;10.760;2023-09-30T11:17:52;102294.66;;;20.42;62.32
30516;BME280;17297;54.022;10.760;2023-09-30T11:20:17;102298.44;;;20.41;62.13
30516;BME280;17297;54.022;10.760;2023-09-30T11:22:44;102285.81;;;20.40;62.11
30516;BME280;17297;54.022;10.760;2023-09-30T11:25:19;102300.31;;;20.40;62.00
30516;BME280;17297;54.022;10.760;2023-09-30T11:27:45;102299.88;;;20.43;61.98
30516;BME280;17297;54.022;10.760;2023-09-30T11:30:12;102297.75;;;20.45;62.26
30516;BME280;17297;54.022;10.760;2023-09-30T11:32:38;102303.03;;;20.47;62.04
30516;BME280;17297;54.022;10.760;2023-09-30T11:35:08;102298.41;;;20.47;62.00
30516;BME280;17297;54.022;10.760;2023-09-30T11:37:34;102295.84;;;20.52;61.95
30516;BME280;17297;54.022;10.760;2023-09-30T11:42:38;102289.88;;;20.62;61.94
30516;BME280;17297;54.022;10.760;2023-09-30T11:45:19;102302.06;;;20.66;62.09
30516;BME280;17297;54.022;10.760;2023-09-30T11:47:45;102295.53;;;20.67;61.73
30516;BME280;17297;54.022;10.760;2023-09-30T11:50:10;102297.19;;;20.68;61.75
30516;BME280;17297;54.022;10.760;2023-09-30T11:52:36;102306.25;;;20.69;61.70
30516;BME280;17297;54.022;10.760;2023-09-30T11:55:05;102305.19;;;20.70;61.37
30516;BME280;17297;54.022;10.760;2023-09-30T11:57:30;102295.31;;;20.69;61.06
30516;BME280;17297;54.022;10.760;2023-09-30T11:59:55;102307.69;;;20.71;61.32
30516;BME280;17297;54.022;10.760;2023-09-30T12:02:21;102303.06;;;20.72;61.28
30516;BME280;17297;54.022;10.760;2023-09-30T12:04:46;102308.53;;;20.72;61.04
30516;BME280;17297;54.022;10.760;2023-09-30T12:07:14;102296.75;;;20.71;61.08
30516;BME280;17297;54.022;10.760;2023-09-30T12:09:40;102290.00;;;20.74;61.32
30516;BME280;17297;54.022;10.760;2023-09-30T12:12:06;102286.22;;;20.75;61.22
30516;BME280;17297;54.022;10.760;2023-09-30T12:14:34;102281.34;;;20.77;60.95
30516;BME280;17297;54.022;10.760;2023-09-30T12:17:00;102277.34;;;20.80;60.79
30516;BME280;17297;54.022;10.760;2023-09-30T12:19:25;102281.28;;;20.84;60.94
30516;BME280;17297;54.022;10.760;2023-09-30T12:21:51;102281.06;;;20.85;61.03
30516;BME280;17297;54.022;10.760;2023-09-30T12:24:18;102278.09;;;20.87;60.77
30516;BME280;17297;54.022;10.760;2023-09-30T12:26:47;102274.31;;;20.88;60.81
30516;BME280;17297;54.022;10.760;2023-09-30T12:29:17;102289.66;;;20.89;60.50
30516;BME280;17297;54.022;10.760;2023-09-30T12:31:46;102289.91;;;20.87;60.69
30516;BME280;17297;54.022;10.760;2023-09-30T12:34:12;102290.09;;;20.86;60.74
30516;BME280;17297;54.022;10.760;2023-09-30T12:36:41;102284.00;;;20.84;60.67
30516;BME280;17297;54.022;10.760;2023-09-30T12:39:07;102290.56;;;20.83;60.16
30516;BME280;17297;54.022;10.760;2023-09-30T12:41:42;102291.84;;;20.80;60.36
30516;BME280;17297;54.022;10.760;2023-09-30T12:44:08;102282.19;;;20.77;60.48
30516;BME280;17297;54.022;10.760;2023-09-30T12:46:34;102287.06;;;20.75;60.56
30516;BME280;17297;54.022;10.760;2023-09-30T12:49:05;102278.47;;;20.72;60.63
30516;BME280;17297;54.022;10.760;2023-09-30T12:51:31;102286.03;;;20.70;60.81
30516;BME280;17297;54.022;10.760;2023-09-30T12:53:56;102279.94;;;20.68;60.81
30516;BME280;17297;54.022;10.760;2023-09-30T12:56:23;102283.53;;;20.68;60.60
30516;BME280;17297;54.022;10.760;2023-09-30T12:58:48;102287.13;;;20.69;60.77